Terminal Aerodrome Forecast
Issued by NWS

Home | Current Version | Previous Version | Graphics & Text | Print | Product List | Glossary On
Versions: 1 2 3 4 5 6 7 8 9 10 11 12 13 14 15 16 17 18
300
FTUS43 KABR 071125
TAFMBG
TAF
KMBG 071125Z 0712/0812 30023G32KT P6SM SCT050
     FM071500 32038G50KT P6SM BKN040
      TEMPO 0715/0719 1SM -SN BKN025
     FM080100 33027G35KT P6SM SKC=

USA.gov is the U.S. government's official web portal to all federal, state and local government web resources and services.